• Join FlightAware (Why Join?)
  • Login
  • US Flag 
02:29PM EST


 

Airport Tracker/Info


-or-


 

Live Flight TrackerFlight Track Log ✈ DAL1755 ✈ 21-Jun-2013 ✈ KATL - KLAX

Flight Track Log - Related Links

Times and Time Zones

All times are in EDT time to prevent confusion due to time zone crossing. See the DAL1755 flight status page for this flight to view local times or setup timezone preferences in your user account.

Time Position Orientation Groundspeed Altitude Reporting Facility
EDT Latitude Longitude Course Direction KTS MPH feet Rate Location/Type
12:49PM 33.6500 -84.3833 270° West 161 185 2,900  Level Atlanta TRACON
12:50PM 33.6667 -84.3167 73° East 231 266 4,900 2,100 Climbing Atlanta TRACON
12:51PM 33.7167 -84.2667 40° Northeast 274 315 7,100 2,246 Climbing Atlanta TRACON
12:52PM 33.8000 -84.5166 270° West  Level FlightAware Approximate
12:53PM 33.8000 -84.6580 270° West  Level FlightAware Approximate
12:53PM 33.8103 -84.4214 306° West 294 338 11,900  Level Atlanta Center
12:54PM 33.8001 -84.7995 270° West  Level FlightAware Approximate
12:54PM 33.8100 -84.5539 270° West 366 421 14,000  Level Atlanta Center
12:55PM 33.8114 -84.6814 271° West 379 436 16,300 2,050 Climbing Atlanta Center
12:56PM 33.8086 -84.8139 269° West 394 453 18,100 1,700 Climbing Atlanta Center
12:57PM 33.8036 -84.9414 267° West 420 483 19,700 1,650 Climbing Atlanta Center
12:58PM 33.7856 -85.0836 261° West 426 490 21,400 1,650 Climbing Atlanta Center
12:59PM 33.7717 -85.2383 264° West 431 496 23,000 1,600 Climbing Atlanta Center
01:00PM 33.7911 -85.3836 279° West 426 490 24,600 1,500 Climbing Atlanta Center
01:01PM 33.8208 -85.5317 284° West 439 505 26,000 1,350 Climbing Atlanta Center
01:02PM 33.8481 -85.6772 283° West 454 522 27,300 1,200 Climbing Atlanta Center
01:03PM 33.8919 -85.8156 291° West 448 516 28,400 1,250 Climbing Atlanta Center
01:04PM 33.9400 -85.9592 292° West 448 516 29,800 1,550 Climbing Atlanta Center
01:05PM 33.9836 -86.1006 290° West 448 516 31,500 1,400 Climbing Atlanta Center
01:06PM 34.0228 -86.2444 288° West 448 516 32,600 1,100 Climbing Atlanta Center
01:07PM 34.0619 -86.3883 288° West 448 516 33,700 700 Climbing Atlanta Center
01:08PM 34.1008 -86.5300 288° West 448 516 34,000 150 Climbing Atlanta Center
01:09PM 34.1419 -86.6692 290° West 448 516 34,000  Level Atlanta Center
01:10PM 34.1664 -86.7575 289° West 451 519 34,000  Level Memphis Center
01:11PM 34.2039 -86.8989 288° West 451 519 34,000  Level Memphis Center
01:12PM 34.2406 -87.0256 289° West 444 511 34,000  Level Memphis Center
01:13PM 34.2844 -87.1822 289° West 444 511 34,000  Level Memphis Center
01:14PM 34.3236 -87.3367 287° West 463 533 34,000  Level Memphis Center
01:15PM 34.3622 -87.4611 291° West 458 527 34,000  Level Memphis Center
01:16PM 34.4008 -87.6033 288° West 453 521 34,000  Level Memphis Center
01:17PM 34.4394 -87.7456 288° West 448 516 34,000  Level Memphis Center
01:18PM 34.4778 -87.8881 288° West 448 516 34,000  Level Memphis Center
01:19PM 34.5139 -88.0331 287° West 448 516 34,000  Level Memphis Center
01:20PM 34.5497 -88.1608 289° West 448 516 34,000  Level Memphis Center
01:21PM 34.5922 -88.3236 288° West 453 521 34,000  Level Memphis Center
01:22PM 34.6300 -88.4692 288° West 453 521 34,000  Level Memphis Center
01:23PM 34.6717 -88.6247 288° West 439 505 34,000  Level Memphis Center
01:24PM 34.7072 -88.7681 287° West 439 505 34,000  Level Memphis Center
01:25PM 34.7464 -88.9189 288° West 450 518 34,000  Level Memphis Center
01:26PM 34.7836 -89.0650 287° West 458 527 34,000  Level Memphis Center
01:27PM 34.8225 -89.2136 288° West 458 527 34,000  Level Memphis Center
01:28PM 34.8614 -89.3600 288° West 451 519 34,000  Level Memphis Center
01:29PM 34.9000 -89.5089 288° West 458 527 34,000  Level Memphis Center
01:30PM 34.9386 -89.6606 287° West 464 534 34,000  Level Memphis Center
01:31PM 34.9831 -89.8172 289° West 469 540 34,000  Level Memphis Center
01:32PM 35.0150 -89.9692 284° West 481 554 34,000  Level Memphis Center
01:33PM 35.0197 -90.1239 272° West 466 536 34,000  Level Memphis Center
01:34PM 35.0156 -90.2811 268° West 460 529 34,000  Level Memphis Center
01:35PM 35.0136 -90.4306 269° West 460 529 34,000  Level Memphis Center
01:36PM 35.0114 -90.5778 269° West 443 510 34,000  Level Memphis Center
01:37PM 35.0111 -90.7272 270° West 438 504 34,000  Level Memphis Center
01:38PM 35.0083 -90.8592 269° West 438 504 34,000  Level Memphis Center
01:39PM 35.0078 -91.0136 270° West 448 516 34,000  Level Memphis Center
01:40PM 35.0047 -91.1633 269° West 448 516 34,000  Level Memphis Center
01:41PM 35.0036 -91.3153 270° West 454 522 34,000  Level Memphis Center
01:42PM 34.9981 -91.4800 268° West 454 522 34,000  Level Memphis Center
01:43PM 34.9967 -91.6322 269° West 449 517 34,000  Level Memphis Center
01:44PM 34.9931 -91.7842 268° West 449 517 34,000  Level Memphis Center
01:45PM 34.9892 -91.9336 268° West 449 517 34,000  Level Memphis Center
01:46PM 34.9872 -92.0831 269° West 455 524 34,000  Level Memphis Center
01:47PM 34.9828 -92.2353 268° West 450 518 34,000  Level Memphis Center
01:48PM 34.9806 -92.3847 269° West 450 518 34,000  Level Memphis Center
01:49PM 34.9758 -92.5367 268° West 450 518 34,000  Level Memphis Center
01:50PM 34.9711 -92.6836 268° West 450 518 34,000 -350 Level Memphis Center
01:51PM 34.9661 -92.8353 268° West 445 512 33,300 -700 Descending Memphis Center
01:52PM 34.9608 -92.9872 268° West 445 512 32,600 -650 Descending Memphis Center
01:53PM 34.9578 -93.1392 269° West 445 512 32,000 -300 Descending Memphis Center
01:54PM 34.9542 -93.2911 268° West 450 518 32,000  Level Memphis Center
01:55PM 34.9483 -93.4428 267° West 456 525 32,000  Level Memphis Center
01:56PM 34.9425 -93.5972 267° West 456 525 32,000  Level Memphis Center
01:57PM 34.9383 -93.7542 268° West 456 525 32,000  Level Memphis Center
01:58PM 34.9319 -93.9058 267° West 456 525 32,000  Level Memphis Center
01:59PM 34.9281 -94.0425 268° West 456 525 32,000  Level Memphis Center
02:00PM 34.9211 -94.1967 267° West 456 525 32,000  Level Memphis Center
02:01PM 34.9164 -94.3508 268° West 456 525 32,000  Level Memphis Center
02:01PM 34.9133 -94.4839 268° West 462 532 32,000  Level Fort Worth Center
02:02PM 34.9061 -94.6261 266° West 457 526 32,000  Level Fort Worth Center
02:03PM 34.8989 -94.7831 267° West 464 534 32,000  Level Fort Worth Center
02:04PM 34.8919 -94.9428 267° West 469 540 32,000  Level Fort Worth Center
02:05PM 34.8842 -95.0925 266° West 464 534 32,000  Level Fort Worth Center
02:06PM 34.8767 -95.2494 267° West 464 534 32,000  Level Fort Worth Center
02:07PM 34.8686 -95.3992 266° West 457 526 32,000  Level Fort Worth Center
02:08PM 34.8567 -95.5714 265° West 462 532 32,000  Level Fort Worth Center
02:09PM 34.8506 -95.7233 267° West 462 532 32,000  Level Fort Worth Center
02:10PM 34.8586 -95.8775 274° West 462 532 32,000  Level Fort Worth Center
02:11PM 34.8814 -96.0264 281° West 456 525 32,000  Level Fort Worth Center
02:12PM 34.9017 -96.1781 279° West 456 525 32,000  Level Fort Worth Center
02:13PM 34.9239 -96.3272 280° West 461 531 32,000  Level Fort Worth Center
02:14PM 34.9461 -96.4764 280° West 461 531 32,000 100 Level Fort Worth Center
02:15PM 34.9658 -96.6281 279° West 461 531 32,200  Climbing Fort Worth Center
02:16PM 34.9853 -96.7750 279° West 461 531 32,000 -100 Descending Fort Worth Center
02:17PM 35.0047 -96.9244 279° West 455 524 32,000  Level Fort Worth Center
02:18PM 35.0242 -97.0764 280° West 455 524 32,000  Level Fort Worth Center
02:19PM 35.0203 -97.0791 280° West  Level FlightAware Approximate
02:19PM 35.0475 -97.2283 281° West 455 524 32,000  Level Fort Worth Center
02:20PM 35.0664 -97.3856 278° West 455 524 32,000  Level Fort Worth Center
02:21PM 35.0869 -97.5378 279° West 467 537 32,000  Level Fort Worth Center
02:22PM 35.1036 -97.6622 279° West 467 537 32,000  Level Fort Worth Center
02:23PM 35.1261 -97.8297 279° West 467 537 32,000  Level Fort Worth Center
02:24PM 35.1464 -97.9847 279° West 467 537 32,000  Level Fort Worth Center
02:25PM 35.1664 -98.1347 279° West 462 532 32,000  Level Fort Worth Center
02:26PM 35.1861 -98.2900 279° West 462 532 32,000  Level Fort Worth Center
02:27PM 35.2039 -98.4425 278° West 462 532 32,000  Level Fort Worth Center
02:28PM 35.2253 -98.6028 279° West 456 525 32,000  Level Fort Worth Center
02:29PM 35.2406 -98.7556 277° West 462 532 32,000  Level Fort Worth Center
02:30PM 35.2597 -98.9086 279° West 457 526 32,000  Level Fort Worth Center
02:31PM 35.2747 -99.0308 279° West 457 526 32,000  Level Fort Worth Center
02:32PM 35.2933 -99.1992 278° West 457 526 32,000 200 Level Fort Worth Center
02:33PM 35.3119 -99.3522 279° West 457 526 32,400 873 Climbing Fort Worth Center
02:34PM 35.3264 -99.4664 279° West 453 521 33,600 1,568 Climbing Albuquerque Center
02:35PM 35.3447 -99.6503 277° West 451 519 35,300 1,171 Climbing Albuquerque Center
02:36PM 35.3389 -99.7975 267° West 435 501 36,000 339 Climbing Albuquerque Center
02:37PM 35.3319 -99.9450 267° West 433 498 36,000  Level Albuquerque Center
02:38PM 35.3242 -100.0939 267° West 435 501 36,000  Level Albuquerque Center
02:39PM 35.3113 -100.1112 267° West  Level FlightAware Approximate
02:39PM 35.3169 -100.2447 267° West 440 506 36,000  Level Albuquerque Center
02:40PM 35.3097 -100.3950 267° West 442 509 36,000  Level Albuquerque Center
02:41PM 35.3022 -100.5453 267° West 441 507 36,000  Level Albuquerque Center
02:42PM 35.2950 -100.7025 267° West 440 506 36,000  Level Albuquerque Center
02:44PM 35.2796 -100.8471 263° West  Level FlightAware Approximate
02:46PM 35.2678 -101.1719 268° West 433 498 36,000  Level Albuquerque Center
02:47PM 35.2594 -101.3175 266° West 431 496 36,000  Level Albuquerque Center
02:48PM 35.2547 -101.4617 268° West 435 501 36,000  Level Albuquerque Center
02:49PM 35.2428 -101.6067 264° West 431 496 36,000  Level Albuquerque Center
02:50PM 35.2317 -101.7619 265° West 432 497 36,000  Level Albuquerque Center
02:51PM 35.2279 -101.8408 268° West  Level FlightAware Approximate
02:51PM 35.2303 -101.9106 269° West 433 498 36,000  Level Albuquerque Center
02:52PM 35.2253 -102.0653 268° West 434 499 36,000  Level Albuquerque Center
02:53PM 35.2211 -102.2122 268° West 434 499 36,000  Level Albuquerque Center
02:54PM 35.2172 -102.3583 268° West 432 497 36,000  Level Albuquerque Center
02:55PM 35.2117 -102.5350 268° West 434 499 36,000  Level Albuquerque Center
02:56PM 35.2078 -102.6825 268° West 435 501 36,000  Level Albuquerque Center
02:57PM 35.2036 -102.8289 268° West 434 499 36,000  Level Albuquerque Center
02:58PM 35.1994 -102.9753 268° West 435 501 36,000  Level Albuquerque Center
02:59PM 35.1944 -103.1244 268° West 435 501 36,000  Level Albuquerque Center
03:00PM 35.1894 -103.2722 268° West 433 498 36,000  Level Albuquerque Center
03:01PM 35.1831 -103.4447 267° West 432 497 36,000  Level Albuquerque Center
03:02PM 35.1778 -103.5919 268° West 431 496 36,000  Level Albuquerque Center
03:03PM 35.1717 -103.7381 267° West 428 493 36,000  Level Albuquerque Center
03:04PM 35.1650 -103.8822 267° West 423 487 36,000  Level Albuquerque Center
03:05PM 35.1600 -104.0225 268° West 423 487 36,000  Level Albuquerque Center
03:06PM 35.1539 -104.1653 267° West 423 487 36,000  Level Albuquerque Center
03:07PM 35.1483 -104.3053 267° West 417 480 36,000  Level Albuquerque Center
03:08PM 35.1403 -104.4750 267° West 417 480 36,000  Level Albuquerque Center
03:09PM 35.1325 -104.6072 266° West 414 476 36,000  Level Albuquerque Center
03:10PM 35.1256 -104.7467 267° West 410 472 36,000  Level Albuquerque Center
03:11PM 35.1192 -104.8864 267° West 409 471 36,000  Level Albuquerque Center
03:12PM 35.1114 -105.0481 267° West 406 467 36,000  Level Albuquerque Center
03:13PM 35.1064 -105.1869 268° West 406 467 36,000  Level Albuquerque Center
03:14PM 35.1011 -105.3253 267° West 405 466 36,000  Level Albuquerque Center
03:16PM 35.0969 -105.4614 268° West 401 461 36,000  Level Albuquerque Center
03:17PM 35.0925 -105.5983 268° West 400 460 36,000  Level Albuquerque Center
03:18PM 35.0878 -105.7367 268° West 402 463 36,000  Level Albuquerque Center
03:19PM 35.0819 -105.8736 267° West 401 461 36,000  Level Albuquerque Center
03:20PM 35.0786 -106.0133 268° West 403 464 36,000  Level Albuquerque Center
03:21PM 35.0719 -106.1489 267° West 403 464 36,000  Level Albuquerque Center
03:22PM 35.0664 -106.2869 267° West 405 466 36,000  Level Albuquerque Center
03:23PM 35.0606 -106.4525 268° West 408 470 36,000  Level Albuquerque Center
03:24PM 35.0531 -106.5867 266° West 417 480 36,000  Level Albuquerque Center
03:25PM 35.0456 -106.7431 267° West 417 480 36,000  Level Albuquerque Center
03:26PM 35.0417 -106.8744 268° West 408 470 36,000  Level Albuquerque Center
03:27PM 35.0394 -107.0294 269° West 407 468 36,000  Level Albuquerque Center
03:28PM 35.0369 -107.1592 269° West 401 461 36,000  Level Albuquerque Center
03:29PM 35.0306 -107.3014 267° West 417 480 36,000  Level Albuquerque Center
03:30PM 35.0264 -107.4394 268° West 412 474 36,000  Level Albuquerque Center
03:31PM 35.0231 -107.5775 268° West 410 472 36,000  Level Albuquerque Center
03:32PM 35.0175 -107.7436 268° West 408 470 36,000  Level Albuquerque Center
03:33PM 35.0142 -107.8717 268° West 410 472 36,000  Level Albuquerque Center
03:34PM 35.0089 -108.0244 268° West 405 466 36,000  Level Albuquerque Center
03:35PM 35.0050 -108.1550 268° West 403 464 36,000  Level Albuquerque Center
03:36PM 34.9997 -108.3078 268° West 402 463 36,000  Level Albuquerque Center
03:37PM 34.9953 -108.4383 268° West 403 464 36,000  Level Albuquerque Center
03:38PM 34.9894 -108.5908 267° West 403 464 36,000  Level Albuquerque Center
03:39PM 34.9839 -108.7203 267° West 401 461 36,000  Level Albuquerque Center
03:40PM 34.9781 -108.8717 267° West 399 459 36,000  Level Albuquerque Center
03:41PM 34.9728 -109.0025 267° West 401 461 36,000  Level Albuquerque Center
03:42PM 34.9681 -109.1322 267° West 401 461 36,000  Level Albuquerque Center
03:43PM 34.9589 -109.2836 266° West 400 460 36,000  Level Albuquerque Center
03:44PM 34.9494 -109.4119 265° West 398 458 36,000  Level Albuquerque Center
03:45PM 34.9400 -109.5644 266° West 402 463 36,000  Level Albuquerque Center
03:46PM 34.9314 -109.6914 265° West 397 457 36,000  Level Albuquerque Center
03:48PM 34.9208 -109.8394 265° West 394 453 36,000  Level Albuquerque Center
03:49PM 34.9136 -109.9669 266° West 392 451 36,000  Level Albuquerque Center
03:50PM 34.9022 -110.1142 265° West 389 448 36,000  Level Albuquerque Center
03:51PM 34.8914 -110.2369 264° West 385 443 36,000  Level Albuquerque Center
03:52PM 34.8811 -110.3644 264° West 390 449 36,000  Level Albuquerque Center
03:53PM 34.8694 -110.5142 265° West 393 452 36,000  Level Albuquerque Center
03:54PM 34.8586 -110.6414 264° West 394 453 36,000  Level Albuquerque Center
03:55PM 34.8486 -110.7656 264° West 388 447 36,000  Level Albuquerque Center
03:56PM 34.8356 -110.9203 264° West 391 450 36,000  Level Albuquerque Center
03:57PM 34.8242 -111.0497 264° West 389 448 36,000  Level Albuquerque Center
03:58PM 34.8153 -111.1847 265° West 395 455 36,000  Level Albuquerque Center
03:59PM 34.8053 -111.3119 265° West 385 443 36,000  Level Albuquerque Center
04:00PM 34.7942 -111.4417 264° West 386 444 36,000  Level Albuquerque Center
04:01PM 34.7831 -111.5700 264° West 385 443 36,000  Level Albuquerque Center
04:02PM 34.7692 -111.7247 264° West 389 448 36,000  Level Albuquerque Center
04:03PM 34.7575 -111.8569 264° West 389 448 36,000  Level Albuquerque Center
04:04PM 34.7461 -111.9939 264° West 402 463 36,000  Level Albuquerque Center
04:05PM 34.7333 -112.1303 264° West 407 468 36,000  Level Albuquerque Center
04:06PM 34.7208 -112.2667 264° West 408 470 36,000  Level Albuquerque Center
04:07PM 34.7072 -112.4281 264° West 407 468 36,000  Level Albuquerque Center
04:08PM 34.6933 -112.5619 263° West 404 465 36,000  Level Albuquerque Center
04:09PM 34.6769 -112.6964 262° West 403 464 36,000  Level Albuquerque Center
04:10PM 34.6611 -112.8306 262° West 402 463 36,000  Level Albuquerque Center
04:11PM 34.6450 -112.9647 262° West 402 463 36,000  Level Albuquerque Center
04:12PM 34.6294 -113.0997 262° West 403 464 36,000  Level Albuquerque Center
04:13PM 34.6119 -113.2358 261° West 406 467 36,000  Level Albuquerque Center
04:14PM 34.5922 -113.3967 262° West 405 466 36,000  Level Albuquerque Center
04:15PM 34.5761 -113.5336 262° West 407 468 36,000  Level Albuquerque Center
04:16PM 34.5567 -113.6681 260° West 407 468 36,000  Level Albuquerque Center
04:17PM 34.5297 -113.8014 256° West 405 466 36,000  Level Albuquerque Center
04:18PM 34.5031 -113.9319 256° West 403 464 36,000  Level Albuquerque Center
04:19PM 34.4736 -114.0686 255° West 406 467 36,000  Level Albuquerque Center
04:21PM 34.4414 -114.2289 256° West 409 471 36,000  Level Albuquerque Center
04:22PM 34.4139 -114.3611 256° West 406 467 36,000  Level Albuquerque Center
04:23PM 34.3869 -114.4939 256° West 406 467 36,000  Level Albuquerque Center
04:24PM 34.3572 -114.6397 256° West 408 470 36,000 -214 Level Los Angeles Center
04:25PM 34.3236 -114.7981 256° West 408 470 35,500 -672 Descending Los Angeles Center
04:26PM 34.2956 -114.9328 256° West 414 476 34,600 -1,065 Descending Los Angeles Center
04:27PM 34.2667 -115.0650 255° West 409 471 33,300 -1,403 Descending Los Angeles Center
04:28PM 34.2319 -115.2278 256° West 417 480 31,700 -1,403 Descending Los Angeles Center
04:29PM 34.2025 -115.3644 255° West 422 486 30,400 -1,306 Descending Los Angeles Center
04:30PM 34.1722 -115.5047 255° West 430 495 29,000 -1,200 Descending Los Angeles Center
04:31PM 34.1408 -115.6431 255° West 431 496 27,900 -480 Descending Los Angeles Center
04:32PM 34.1111 -115.7833 256° West 433 498 28,000 44 Climbing Los Angeles Center
04:33PM 34.0892 -115.9253 259° West 433 498 28,000  Level Los Angeles Center
04:34PM 34.0597 -116.1275 260° West 438 504 28,000  Level Los Angeles Center
04:35PM 34.0378 -116.2700 260° West 436 502 28,000 -435 Level Los Angeles Center
04:36PM 34.0172 -116.4108 260° West 429 494 27,100 -960 Descending Los Angeles Center
04:38PM 33.9997 -116.5481 261° West 420 483 26,000 -1,296 Descending Los Angeles Center
04:39PM 33.9892 -116.6844 265° West 413 475 24,400 -2,371 Descending Los Angeles Center
04:40PM 33.9772 -116.8478 265° West 410 472 21,100 -3,091 Descending Los Angeles Center
04:40PM 33.9667 -116.9333 262° West 390 449 19,300 -2,374 Descending Southern California TRACON
04:41PM 33.9667 -117.0500 270° West 388 447 17,500 -1,565 Descending Southern California TRACON
04:42PM 33.9500 -117.1667 260° West 365 420 16,300 -1,488 Descending Southern California TRACON
04:43PM 33.9333 -117.2833 260° West 364 419 14,500 -1,450 Descending Southern California TRACON
04:44PM 33.9500 -117.4000 280° West 356 410 13,400 -950 Descending Southern California TRACON
04:45PM 33.9833 -117.5000 292° West 305 351 12,600 -1,095 Descending Southern California TRACON
04:46PM 34.0167 -117.6167 289° West 335 386 11,100 -1,289 Descending Southern California TRACON
04:47PM 34.0000 -117.7000 256° West 276 318 10,000 -1,148 Descending Southern California TRACON
04:48PM 34.0000 -117.7833 270° West 276 318 8,900 -1,050 Descending Southern California TRACON
04:49PM 33.9833 -117.8833 259° West 275 316 7,900 -1,190 Descending Southern California TRACON
04:50PM 33.9833 -117.9833 270° West 275 316 6,400 -1,339 Descending Southern California TRACON
04:51PM 33.9667 -118.0667 256° West 273 314 5,200 -1,075 Descending Southern California TRACON
04:52PM 33.9658 -118.1264 269° West 265 305 4,500 -903 Descending Los Angeles Center
04:53PM 33.9586 -118.1981 263° West 230 265 3,500 -968 Descending Los Angeles Center